Mount Wolf, Pennsylvania
Current Conditions -  °F | °C
As of 5:56 PM on Wednesday 17 Dec 2014 (Local Time) from KMDT Reporting Station
Overcast Overcast  
Wind Chill: 35°   Ceiling: 4000
Heat Index: 41°   Visibility: 10mi
Dew Point: 28°   Wind: 9mph
Humidity: 60%   Direction: 290°WNW
Pressure: 29.99"   Gusts: NA
Location:  40.06°N, 76.7°W
Report Text: KMDT 172256Z 29008KT 10SM OVC040 05/M02 A2999 RMK AO2 SLP157 T00501022
Loading
Personal Weather Stations






























Interactive Weather Map New forecast layout! Learn more

10-Day Weather Forecast

Advertisements
Track Severe Weather on mobile